Capetan Vassilis — C6S2085 — position and weather

sailwx.info

Track history (hours):
 
Tides and Currents Weather Stations Pressure Air Temp Water Temp Dewpoint Dewpoint Depression Visibility Wind Speed Wind Dir Waves Ship Positions

Capetan Vassilis

Last reported at 2014-Jul-22 15:30 UTC. Time now 2014-Jul-24 00:16 UTC.
Position N 22°44' E 117°14'.

Length 191 m; draft 10 m.

MMSI: 311552000.

Date/timePositionNaut miles runAvg speedWind from/ knotsBaromVisibWave heightAir tempDewpointWater temp
2014-Jul-22 15:30N 22°44' E 117°14'1612.9
2014-Jul-22 14:16N 22°58' E 117°21'912.4
2014-Jul-22 13:33N 23°06' E 117°26'1412.1
2014-Jul-22 12:25N 23°18' E 117°34'1012.1
2014-Jul-22 11:33N 23°24' E 117°43'1211.9
2014-Jul-22 10:33N 23°32' E 117°53'1211.9
2014-Jul-22 09:33N 23°40' E 118°03'1212.1
2014-Jul-22 08:33N 23°47' E 118°13'1312.9
2014-Jul-22 07:33N 23°55' E 118°24'1313.0
2014-Jul-22 06:32N 24°04' E 118°35'2813.4
2014-Jul-22 04:26N 24°22' E 118°59'1213.7
2014-Jul-22 03:33N 24°30' E 119°08'1613.5
2014-Jul-22 02:21N 24°41' E 119°22'37013.2
2014-Jul-20 22:25N 29°51' E 123°09'1111.9
2014-Jul-20 21:27N 30°01' E 123°16'1412.6
2014-Jul-20 20:19N 30°15' E 123°17'1013.0
2014-Jul-20 19:32N 30°25' E 123°18'1912.9
2014-Jul-20 18:05N 30°43' E 123°20'713.0
2014-Jul-20 17:32N 30°48' E 123°14'1413.4
2014-Jul-20 16:31N 30°56' E 123°01'2613.4
2014-Jul-20 14:33N 31°06' E 122°32'1111.3
2014-Jul-20 13:32N 31°06' E 122°19'1413.2
2014-Jul-20 12:30N 31°14' E 122°06'1312.2
2014-Jul-20 11:28N 31°16' E 121°51'1011.0
2014-Jul-20 10:33N 31°21' E 121°40'9 8.8
2014-Jul-20 09:33N 31°25' E 121°31'6 6.0
2014-Jul-20 08:33N 31°29' E 121°26'10 9.9
2014-Jul-20 07:32N 31°36' E 121°17'1111.2
2014-Jul-20 06:33N 31°43' E 121°08'1111.1
2014-Jul-20 05:33N 31°47' E 120°56'1312.9
2014-Jul-20 04:33N 31°59' E 120°50'1212.0
2014-Jul-20 03:33N 31°60' E 120°36'1 0.5
2014-Jul-20 02:31N 31°60' E 120°35'0 0.0
2014-Jul-20 01:28N 31°60' E 120°35'0 0.0
2014-Jul-20 00:32N 31°60' E 120°35'0 0.0
2014-Jul-19 23:32N 31°60' E 120°35'0 0.0
2014-Jul-19 22:32N 31°60' E 120°35'0 0.0
2014-Jul-19 21:28N 31°60' E 120°35'0 0.0
2014-Jul-19 20:32N 31°60' E 120°35'0 0.0
2014-Jul-19 19:28N 31°60' E 120°35'0 0.0
2014-Jul-19 18:31N 31°60' E 120°35'0 0.0
2014-Jul-19 17:28N 31°60' E 120°35'0 0.0
2014-Jul-19 16:19N 31°60' E 120°35'0 0.0
2014-Jul-19 15:32N 31°60' E 120°35'0 0.0
2014-Jul-19 14:26N 31°60' E 120°35'0 0.0
2014-Jul-19 13:31N 31°60' E 120°35'0 0.0
2014-Jul-19 12:31N 31°60' E 120°35'0 0.0
2014-Jul-19 11:19N 31°60' E 120°35'0 0.0
2014-Jul-19 10:28N 31°60' E 120°35'0 0.0
2014-Jul-19 09:31N 31°60' E 120°35'0 0.0
2014-Jul-19 08:31N 31°60' E 120°35'0 0.0
2014-Jul-19 07:25N 31°60' E 120°35'0 0.0
2014-Jul-19 06:31N 31°60' E 120°35'0 0.0
2014-Jul-19 05:31N 31°60' E 120°35'0 0.0
2014-Jul-19 04:31N 31°60' E 120°35'2 2.1
2014-Jul-19 03:33N 31°60' E 120°37'9 9.4
2014-Jul-19 02:33N 32°00' E 120°48'1110.6
2014-Jul-19 01:33N 31°51' E 120°54'8 8.4
2014-Jul-19 00:33N 31°46' E 121°02'1211.9
2014-Jul-18 23:33N 31°39' E 121°13'1212.3
2014-Jul-18 22:33N 31°31' E 121°24'10 9.9
2014-Jul-18 21:33N 31°24' E 121°33'9 9.2
2014-Jul-18 20:32N 31°20' E 121°42'1010.4
2014-Jul-18 19:32N 31°16' E 121°54'  
Track history (hours):
 
Tides and Currents Weather Stations Pressure Air Temp Water Temp Dewpoint Dewpoint Depression Visibility Wind Speed Wind Dir Waves Ship Positions

Capetan Vassilis

Last reported at 2014-Jul-22 15:30 UTC. Time now 2014-Jul-24 00:17 UTC.
Position N 22°44' E 117°14'.

Length 191 m; draft 10 m.

MMSI: 311552000.

Date/timePositionNaut miles runAvg speedWind from/ knotsBaromVisibWave heightAir tempDewpointWater temp
2014-Jul-22 15:30N 22°44' E 117°14'1612.9
2014-Jul-22 14:16N 22°58' E 117°21'912.4
2014-Jul-22 13:33N 23°06' E 117°26'1412.1
2014-Jul-22 12:25N 23°18' E 117°34'1012.1
2014-Jul-22 11:33N 23°24' E 117°43'1211.9
2014-Jul-22 10:33N 23°32' E 117°53'1211.9
2014-Jul-22 09:33N 23°40' E 118°03'1212.1
2014-Jul-22 08:33N 23°47' E 118°13'1312.9
2014-Jul-22 07:33N 23°55' E 118°24'1313.0
2014-Jul-22 06:32N 24°04' E 118°35'2813.4
2014-Jul-22 04:26N 24°22' E 118°59'1213.7
2014-Jul-22 03:33N 24°30' E 119°08'1613.5
2014-Jul-22 02:21N 24°41' E 119°22'37013.2
2014-Jul-20 22:25N 29°51' E 123°09'1111.9
2014-Jul-20 21:27N 30°01' E 123°16'1412.6
2014-Jul-20 20:19N 30°15' E 123°17'1013.0
2014-Jul-20 19:32N 30°25' E 123°18'1912.9
2014-Jul-20 18:05N 30°43' E 123°20'713.0
2014-Jul-20 17:32N 30°48' E 123°14'1413.4
2014-Jul-20 16:31N 30°56' E 123°01'2613.4
2014-Jul-20 14:33N 31°06' E 122°32'1111.3
2014-Jul-20 13:32N 31°06' E 122°19'1413.2
2014-Jul-20 12:30N 31°14' E 122°06'1312.2
2014-Jul-20 11:28N 31°16' E 121°51'1011.0
2014-Jul-20 10:33N 31°21' E 121°40'9 8.8
2014-Jul-20 09:33N 31°25' E 121°31'6 6.0
2014-Jul-20 08:33N 31°29' E 121°26'10 9.9
2014-Jul-20 07:32N 31°36' E 121°17'1111.2
2014-Jul-20 06:33N 31°43' E 121°08'1111.1
2014-Jul-20 05:33N 31°47' E 120°56'1312.9
2014-Jul-20 04:33N 31°59' E 120°50'1212.0
2014-Jul-20 03:33N 31°60' E 120°36'1 0.5
2014-Jul-20 02:31N 31°60' E 120°35'0 0.0
2014-Jul-20 01:28N 31°60' E 120°35'0 0.0
2014-Jul-20 00:32N 31°60' E 120°35'0 0.0
2014-Jul-19 23:32N 31°60' E 120°35'0 0.0
2014-Jul-19 22:32N 31°60' E 120°35'0 0.0
2014-Jul-19 21:28N 31°60' E 120°35'0 0.0
2014-Jul-19 20:32N 31°60' E 120°35'0 0.0
2014-Jul-19 19:28N 31°60' E 120°35'0 0.0
2014-Jul-19 18:31N 31°60' E 120°35'0 0.0
2014-Jul-19 17:28N 31°60' E 120°35'0 0.0
2014-Jul-19 16:19N 31°60' E 120°35'0 0.0
2014-Jul-19 15:32N 31°60' E 120°35'0 0.0
2014-Jul-19 14:26N 31°60' E 120°35'0 0.0
2014-Jul-19 13:31N 31°60' E 120°35'0 0.0
2014-Jul-19 12:31N 31°60' E 120°35'0 0.0
2014-Jul-19 11:19N 31°60' E 120°35'0 0.0
2014-Jul-19 10:28N 31°60' E 120°35'0 0.0
2014-Jul-19 09:31N 31°60' E 120°35'0 0.0
2014-Jul-19 08:31N 31°60' E 120°35'0 0.0
2014-Jul-19 07:25N 31°60' E 120°35'0 0.0
2014-Jul-19 06:31N 31°60' E 120°35'0 0.0
2014-Jul-19 05:31N 31°60' E 120°35'0 0.0
2014-Jul-19 04:31N 31°60' E 120°35'2 2.1
2014-Jul-19 03:33N 31°60' E 120°37'9 9.4
2014-Jul-19 02:33N 32°00' E 120°48'1110.6
2014-Jul-19 01:33N 31°51' E 120°54'8 8.4
2014-Jul-19 00:33N 31°46' E 121°02'1211.9
2014-Jul-18 23:33N 31°39' E 121°13'1212.3
2014-Jul-18 22:33N 31°31' E 121°24'10 9.9
2014-Jul-18 21:33N 31°24' E 121°33'9 9.2
2014-Jul-18 20:32N 31°20' E 121°42'1010.4
2014-Jul-18 19:32N 31°16' E 121°54'  

Dump ship's entire track history